createdAt,value
2022-12-23T00:01:13.521Z,0.47
2022-12-23T00:03:40.241Z,0.60
2022-12-23T00:06:15.425Z,0.55
2022-12-23T00:08:42.702Z,0.40
2022-12-23T00:11:18.615Z,0.30
2022-12-23T00:14:04.560Z,0.37
2022-12-23T00:16:31.197Z,0.32
2022-12-23T00:18:57.766Z,0.40
2022-12-23T00:21:24.266Z,0.40
2022-12-23T00:23:51.595Z,0.30
2022-12-23T00:26:21.699Z,0.57
2022-12-23T00:28:48.556Z,0.30
2022-12-23T00:31:18.586Z,0.30
2022-12-23T00:33:48.039Z,0.40
2022-12-23T00:36:16.815Z,0.30
2022-12-23T00:39:06.819Z,0.50
2022-12-23T00:41:52.393Z,0.32
2022-12-23T00:44:18.996Z,0.45
2022-12-23T00:46:45.788Z,0.30
2022-12-23T00:49:32.898Z,0.22
2022-12-23T00:52:00.138Z,0.37
2022-12-23T00:54:26.852Z,0.43
2022-12-23T00:56:53.776Z,0.20
2022-12-23T00:59:20.411Z,0.70
2022-12-23T01:02:05.852Z,0.50
2022-12-23T01:04:51.325Z,0.50
2022-12-23T01:07:17.859Z,0.40
2022-12-23T01:09:44.638Z,0.40
2022-12-23T01:12:11.198Z,0.60
2022-12-23T01:14:37.931Z,0.60
2022-12-23T01:17:07.048Z,0.83
2022-12-23T01:19:33.861Z,0.55
2022-12-23T01:22:00.372Z,0.45
2022-12-23T01:24:31.385Z,0.50
2022-12-23T01:26:58.156Z,1.25
2022-12-23T01:29:25.393Z,0.50
2022-12-23T01:31:52.105Z,0.50
2022-12-23T01:34:18.901Z,0.50
2022-12-23T01:36:45.419Z,0.30
2022-12-23T01:39:12.297Z,0.40
2022-12-23T01:41:57.205Z,0.50
2022-12-23T01:45:01.983Z,0.65
2022-12-23T01:47:34.665Z,0.30
2022-12-23T01:50:43.657Z,0.40
2022-12-23T01:53:24.113Z,0.22
2022-12-23T01:56:02.869Z,0.30
2022-12-23T01:58:39.222Z,0.30
2022-12-23T02:01:25.450Z,0.57
2022-12-23T02:03:56.137Z,0.60
2022-12-23T02:06:47.748Z,0.55
2022-12-23T02:09:17.396Z,0.60
2022-12-23T02:12:07.286Z,0.60
2022-12-23T02:14:55.961Z,0.40
2022-12-23T02:17:41.765Z,0.40
2022-12-23T02:20:49.221Z,0.50
2022-12-23T02:23:30.927Z,0.50
2022-12-23T02:26:18.173Z,0.65
2022-12-23T02:29:06.445Z,0.50
2022-12-23T02:31:49.381Z,0.40
2022-12-23T02:34:18.678Z,0.30
2022-12-23T02:37:03.015Z,0.50
2022-12-23T02:39:48.385Z,0.70
2022-12-23T02:42:22.268Z,0.47
2022-12-23T02:45:00.143Z,0.50
2022-12-23T02:47:36.341Z,0.45
2022-12-23T02:50:10.454Z,0.37
2022-12-23T02:52:39.088Z,0.40
2022-12-23T02:55:12.633Z,0.50
2022-12-23T02:57:44.735Z,0.30
2022-12-23T03:00:12.639Z,0.38
2022-12-23T03:02:41.737Z,0.53
2022-12-23T03:05:28.823Z,0.45
2022-12-23T03:07:59.620Z,0.40
2022-12-23T03:10:55.372Z,0.20
2022-12-23T03:13:21.772Z,0.40
2022-12-23T03:16:06.203Z,0.43
2022-12-23T03:19:11.224Z,0.40
2022-12-23T03:22:02.855Z,0.20
2022-12-23T03:24:43.600Z,0.30
2022-12-23T03:27:20.395Z,0.20
2022-12-23T03:30:02.042Z,0.20
2022-12-23T03:32:32.228Z,0.10
2022-12-23T03:35:00.723Z,0.38
2022-12-23T03:37:30.034Z,0.20
2022-12-23T03:40:10.355Z,0.20
2022-12-23T03:42:40.533Z,0.37
2022-12-23T03:45:40.717Z,0.43
2022-12-23T03:48:37.603Z,0.20
2022-12-23T03:51:14.310Z,0.20
2022-12-23T03:54:03.697Z,0.57
2022-12-23T03:56:35.449Z,0.30
2022-12-23T03:59:11.799Z,0.20
2022-12-23T04:01:44.648Z,0.10
2022-12-23T04:04:33.382Z,0.43
2022-12-23T04:07:10.191Z,0.20
2022-12-23T04:09:38.097Z,0.20
2022-12-23T04:12:05.195Z,0.15
2022-12-23T04:14:34.509Z,0.13
2022-12-23T04:17:01.418Z,0.10
2022-12-23T04:19:28.101Z,0.20
2022-12-23T04:21:56.833Z,0.20
2022-12-23T04:24:23.643Z,0.10
2022-12-23T04:26:50.153Z,0.20
2022-12-23T04:29:16.751Z,0.20
2022-12-23T04:31:43.318Z,0.40
2022-12-23T04:34:09.796Z,0.20
2022-12-23T04:36:36.298Z,0.10
2022-12-23T04:39:02.825Z,0.20
2022-12-23T04:41:29.388Z,0.20
2022-12-23T04:43:55.862Z,0.28
2022-12-23T04:46:22.516Z,0.30
2022-12-23T04:48:48.996Z,0.30
2022-12-23T04:51:15.721Z,0.40
2022-12-23T04:53:42.233Z,0.30
2022-12-23T04:56:08.922Z,0.52
2022-12-23T04:58:35.429Z,0.10
2022-12-23T05:01:04.367Z,0.40
2022-12-23T05:03:31.559Z,0.45
2022-12-23T05:05:58.429Z,0.40
2022-12-23T05:08:25.039Z,0.35
2022-12-23T05:10:51.546Z,0.30
2022-12-23T05:13:18.058Z,0.20
2022-12-23T05:15:45.857Z,0.30
2022-12-23T05:18:12.589Z,0.30
2022-12-23T05:20:39.164Z,0.30
2022-12-23T05:23:05.714Z,0.33
2022-12-23T05:25:37.219Z,0.25
2022-12-23T05:28:04.444Z,0.30
2022-12-23T05:30:30.997Z,0.30
2022-12-23T05:32:58.379Z,0.20
2022-12-23T05:35:26.911Z,0.40
2022-12-23T05:37:53.632Z,0.35
2022-12-23T05:40:23.723Z,0.55
2022-12-23T05:42:52.827Z,0.40
2022-12-23T05:45:19.297Z,0.40
2022-12-23T05:47:45.810Z,0.30
2022-12-23T05:50:12.995Z,0.30
2022-12-23T05:52:39.862Z,0.30
2022-12-23T05:55:06.907Z,0.20
2022-12-23T05:57:33.399Z,0.20
2022-12-23T06:00:00.062Z,0.37
2022-12-23T06:02:26.736Z,0.45
2022-12-23T06:04:53.350Z,0.55
2022-12-23T06:07:19.813Z,0.60
2022-12-23T06:09:46.357Z,0.40
2022-12-23T06:12:12.966Z,0.43
2022-12-23T06:14:39.490Z,0.30
2022-12-23T06:17:06.063Z,0.50
2022-12-23T06:19:32.690Z,0.80
2022-12-23T06:21:59.251Z,0.70
2022-12-23T06:24:25.767Z,0.50
2022-12-23T06:26:56.956Z,0.60
2022-12-23T06:29:24.320Z,0.90
2022-12-23T06:31:52.478Z,0.57
2022-12-23T06:34:19.021Z,0.50
2022-12-23T06:36:45.714Z,0.60
2022-12-23T06:39:12.280Z,0.70
2022-12-23T06:41:38.966Z,0.80
2022-12-23T06:44:05.767Z,0.80
2022-12-23T06:46:32.465Z,0.85
2022-12-23T06:48:59.045Z,1.13
2022-12-23T06:51:25.670Z,0.80
2022-12-23T06:53:52.203Z,0.70
2022-12-23T06:56:18.917Z,0.80
2022-12-23T06:58:45.637Z,1.00
2022-12-23T07:01:12.505Z,0.67
2022-12-23T07:03:39.260Z,1.30
2022-12-23T07:06:06.304Z,0.93
2022-12-23T07:08:32.800Z,1.33
2022-12-23T07:11:04.017Z,1.48
2022-12-23T07:13:32.116Z,1.50
2022-12-23T07:15:59.463Z,1.75
2022-12-23T07:18:26.300Z,1.80
2022-12-23T07:20:52.840Z,1.90
2022-12-23T07:23:19.415Z,1.83
2022-12-23T07:25:46.065Z,1.80
2022-12-23T07:28:12.614Z,2.47
2022-12-23T07:30:39.134Z,2.00
2022-12-23T07:33:05.716Z,1.88
2022-12-23T07:35:32.199Z,2.10
2022-12-23T07:37:58.722Z,1.87
2022-12-23T07:40:26.400Z,2.80
2022-12-23T07:42:58.605Z,2.10
2022-12-23T07:45:29.900Z,2.33
2022-12-23T07:47:58.368Z,2.03
2022-12-23T07:50:25.727Z,2.20
2022-12-23T07:52:53.207Z,2.30
2022-12-23T07:55:20.612Z,2.17
2022-12-23T07:57:51.612Z,2.40
2022-12-23T08:00:20.144Z,1.55
2022-12-23T08:02:48.073Z,2.53
2022-12-23T08:05:15.641Z,2.85
2022-12-23T08:07:42.503Z,2.45
2022-12-23T08:10:09.892Z,2.95
2022-12-23T08:12:36.533Z,2.35
2022-12-23T08:15:03.760Z,3.10
2022-12-23T08:17:30.905Z,2.65
2022-12-23T08:19:57.544Z,2.13
2022-12-23T08:22:24.705Z,2.50
2022-12-23T08:24:52.795Z,2.88
2022-12-23T08:27:19.287Z,2.73
2022-12-23T08:29:45.879Z,2.40
2022-12-23T08:32:12.713Z,2.75
2022-12-23T08:34:39.393Z,2.22
2022-12-23T08:37:05.998Z,2.70
2022-12-23T08:39:32.615Z,2.27
2022-12-23T08:41:59.134Z,2.42
2022-12-23T08:44:27.873Z,2.60
2022-12-23T08:46:55.540Z,2.15
2022-12-23T08:49:22.720Z,2.33
2022-12-23T08:51:49.899Z,2.80
2022-12-23T08:54:17.525Z,2.45
2022-12-23T08:56:44.095Z,2.53
2022-12-23T08:59:18.579Z,1.40
2022-12-23T09:01:46.827Z,1.15
2022-12-23T09:04:13.577Z,0.50
2022-12-23T09:06:42.140Z,1.35
2022-12-23T09:09:10.979Z,1.95
2022-12-23T09:11:38.794Z,1.75
2022-12-23T09:14:06.618Z,1.50
2022-12-23T09:16:33.193Z,2.50
2022-12-23T09:18:59.937Z,1.85
2022-12-23T09:21:26.866Z,3.08
2022-12-23T09:23:53.485Z,2.17
2022-12-23T09:26:25.786Z,1.95
2022-12-23T09:28:52.869Z,2.00
2022-12-23T09:31:20.577Z,2.25
2022-12-23T09:33:49.426Z,1.70
2022-12-23T09:36:16.813Z,1.98
2022-12-23T09:38:43.475Z,1.60
2022-12-23T09:41:34.824Z,2.27
2022-12-23T09:44:30.640Z,2.10
2022-12-23T09:47:02.083Z,1.33
2022-12-23T09:49:28.961Z,1.10
2022-12-23T09:52:01.628Z,1.20
2022-12-23T09:54:32.701Z,1.33
2022-12-23T09:57:06.272Z,1.15
2022-12-23T09:59:48.147Z,1.50
2022-12-23T10:02:27.508Z,1.90
2022-12-23T10:05:14.745Z,1.92
2022-12-23T10:07:49.480Z,2.00
2022-12-23T10:10:37.478Z,1.92
2022-12-23T10:13:06.365Z,1.88
2022-12-23T10:15:39.081Z,1.33
2022-12-23T10:18:17.928Z,1.58
2022-12-23T10:21:03.006Z,1.60
2022-12-23T10:23:37.630Z,1.25
2022-12-23T10:26:16.246Z,1.13
2022-12-23T10:28:42.798Z,1.30
2022-12-23T10:31:39.883Z,1.10
2022-12-23T10:34:17.443Z,0.90
2022-12-23T10:37:02.679Z,0.88
2022-12-23T10:39:38.026Z,0.90
2022-12-23T10:42:19.482Z,1.05
2022-12-23T10:45:01.486Z,1.20
2022-12-23T10:47:51.903Z,1.20
2022-12-23T10:50:28.743Z,1.77
2022-12-23T10:52:58.131Z,1.50
2022-12-23T10:55:33.477Z,1.67
2022-12-23T10:58:07.936Z,1.90
2022-12-23T11:00:38.962Z,1.90
2022-12-23T11:03:15.284Z,1.80
2022-12-23T11:05:43.353Z,1.88
2022-12-23T11:08:11.166Z,1.85
2022-12-23T11:10:39.712Z,2.08
2022-12-23T11:13:06.750Z,2.40
2022-12-23T11:15:35.140Z,2.40
2022-12-23T11:18:05.470Z,1.60
2022-12-23T11:20:33.516Z,2.15
2022-12-23T11:23:02.280Z,2.15
2022-12-23T11:25:29.065Z,1.70
2022-12-23T11:28:06.321Z,1.35
2022-12-23T11:30:56.469Z,1.73
2022-12-23T11:33:31.025Z,1.40
2022-12-23T11:36:12.826Z,1.60
2022-12-23T11:38:52.660Z,1.23
2022-12-23T11:41:26.202Z,1.90
2022-12-23T11:44:07.251Z,1.40
2022-12-23T11:46:34.897Z,1.65
2022-12-23T11:49:22.675Z,1.58
2022-12-23T11:52:13.682Z,2.07
2022-12-23T11:54:40.304Z,2.08
2022-12-23T11:57:17.128Z,1.75
2022-12-23T11:59:49.818Z,1.70
2022-12-23T12:02:40.942Z,1.90
2022-12-23T12:05:22.923Z,0.80
2022-12-23T12:07:51.564Z,1.33
2022-12-23T12:10:25.142Z,2.35
2022-12-23T12:12:56.550Z,1.10
2022-12-23T12:15:44.740Z,0.98
2022-12-23T12:18:15.508Z,1.00
2022-12-23T12:20:46.444Z,0.90
2022-12-23T12:23:23.152Z,0.68
2022-12-23T12:26:01.979Z,0.85
2022-12-23T12:28:31.355Z,0.88
2022-12-23T12:31:06.012Z,0.70
2022-12-23T12:33:49.030Z,1.25
2022-12-23T12:36:43.429Z,0.85
2022-12-23T12:39:24.971Z,0.85
2022-12-23T12:42:01.828Z,0.90
2022-12-23T12:44:44.329Z,0.50
2022-12-23T12:47:51.878Z,0.50
2022-12-23T12:50:16.107Z,0.70
2022-12-23T12:52:43.932Z,0.88
2022-12-23T12:55:20.069Z,0.70
2022-12-23T12:57:46.784Z,0.60
2022-12-23T13:00:22.275Z,1.10
2022-12-23T13:03:26.027Z,0.73
2022-12-23T13:06:06.723Z,0.77
2022-12-23T13:09:00.034Z,1.33
2022-12-23T13:11:45.332Z,0.80
2022-12-23T13:14:41.495Z,1.40
2022-12-23T13:17:18.563Z,0.60
2022-12-23T13:19:59.510Z,0.95
2022-12-23T13:22:32.983Z,0.45
2022-12-23T13:25:17.872Z,0.63
2022-12-23T13:27:46.246Z,0.80
2022-12-23T13:30:20.431Z,0.70
2022-12-23T13:33:07.012Z,0.77
2022-12-23T13:35:45.867Z,1.00
2022-12-23T13:38:18.901Z,1.10
2022-12-23T13:40:57.590Z,0.70
2022-12-23T13:43:26.362Z,1.08
2022-12-23T13:45:55.439Z,0.82
2022-12-23T13:48:43.752Z,1.00
2022-12-23T13:51:17.932Z,1.30
2022-12-23T13:54:05.107Z,0.82
2022-12-23T13:56:31.847Z,1.02
2022-12-23T13:58:58.912Z,0.85
2022-12-23T14:01:43.535Z,0.90
2022-12-23T14:04:28.568Z,0.90
2022-12-23T14:06:57.863Z,0.50
2022-12-23T14:09:32.332Z,1.10
2022-12-23T14:12:10.751Z,0.68
2022-12-23T14:14:50.195Z,0.82
2022-12-23T14:17:29.625Z,0.87
2022-12-23T14:20:08.441Z,0.75
2022-12-23T14:23:05.640Z,0.68
2022-12-23T14:25:48.386Z,1.02
2022-12-23T14:28:45.421Z,0.75
2022-12-23T14:31:34.067Z,1.10
2022-12-23T14:34:26.389Z,0.90
2022-12-23T14:37:16.737Z,1.10
2022-12-23T14:39:44.985Z,1.98
2022-12-23T14:42:18.731Z,1.45
2022-12-23T14:44:54.540Z,1.47
2022-12-23T14:47:32.141Z,1.00
2022-12-23T14:50:35.863Z,0.43
2022-12-23T14:53:21.698Z,0.88
2022-12-23T14:55:50.478Z,1.30
2022-12-23T14:58:36.404Z,1.00
2022-12-23T15:01:09.973Z,1.40
2022-12-23T15:03:43.762Z,1.40
2022-12-23T15:06:24.650Z,0.70
2022-12-23T15:08:53.513Z,0.75
2022-12-23T15:11:31.481Z,0.93
2022-12-23T15:14:02.260Z,1.08
2022-12-23T15:16:36.047Z,1.35
2022-12-23T15:19:23.217Z,1.38
2022-12-23T15:21:59.581Z,1.30
2022-12-23T15:24:31.369Z,0.90
2022-12-23T15:27:25.280Z,1.10
2022-12-23T15:29:49.465Z,1.30
2022-12-23T15:32:17.349Z,1.30
2022-12-23T15:34:44.351Z,1.48
2022-12-23T15:37:12.700Z,0.90
2022-12-23T15:39:43.924Z,0.90
2022-12-23T15:42:24.924Z,1.02
2022-12-23T15:44:54.963Z,0.70
2022-12-23T15:47:25.766Z,0.77
2022-12-23T15:49:52.738Z,1.53
2022-12-23T15:52:20.716Z,0.70
2022-12-23T15:55:11.364Z,1.25
2022-12-23T15:57:49.842Z,0.50
2022-12-23T16:00:21.011Z,0.75
2022-12-23T16:03:00.272Z,0.50
2022-12-23T16:05:34.062Z,1.20
2022-12-23T16:08:23.198Z,0.70
2022-12-23T16:11:02.378Z,1.45
2022-12-23T16:13:29.395Z,1.75
2022-12-23T16:16:19.917Z,1.10
2022-12-23T16:18:47.857Z,1.20
2022-12-23T16:21:15.220Z,1.90
2022-12-23T16:23:53.065Z,1.00
2022-12-23T16:26:21.286Z,1.08
2022-12-23T16:28:54.066Z,1.33
2022-12-23T16:31:21.224Z,1.17
2022-12-23T16:33:47.820Z,0.90
2022-12-23T16:36:18.540Z,1.13
2022-12-23T16:38:46.020Z,0.77
2022-12-23T16:41:13.058Z,0.60
2022-12-23T16:43:39.547Z,0.75
2022-12-23T16:46:08.158Z,0.40
2022-12-23T16:48:41.556Z,0.75
2022-12-23T16:51:12.940Z,0.98
2022-12-23T16:53:39.613Z,1.67
2022-12-23T16:56:14.128Z,1.05
2022-12-23T16:58:41.170Z,1.70
2022-12-23T17:01:14.542Z,1.33
2022-12-23T17:03:41.123Z,0.82
2022-12-23T17:06:13.659Z,2.60
2022-12-23T17:08:40.635Z,1.02
2022-12-23T17:11:14.852Z,1.40
2022-12-23T17:13:41.811Z,1.42
2022-12-23T17:16:20.088Z,1.17
2022-12-23T17:18:51.671Z,1.30
2022-12-23T17:21:26.450Z,1.20
2022-12-23T17:23:56.855Z,1.20
2022-12-23T17:26:23.376Z,2.20
2022-12-23T17:28:50.589Z,1.27
2022-12-23T17:31:26.302Z,1.73
2022-12-23T17:33:54.285Z,0.85
2022-12-23T17:36:21.624Z,1.42
2022-12-23T17:38:48.239Z,1.08
2022-12-23T17:41:29.085Z,1.70
2022-12-23T17:43:56.392Z,1.53
2022-12-23T17:46:23.554Z,1.83
2022-12-23T17:48:50.738Z,1.83
2022-12-23T17:51:20.049Z,0.82
2022-12-23T17:53:51.582Z,2.20
2022-12-23T17:56:22.074Z,1.60
2022-12-23T17:58:49.966Z,2.00
2022-12-23T18:01:29.813Z,1.83
2022-12-23T18:03:58.293Z,2.25
2022-12-23T18:06:26.919Z,1.58
2022-12-23T18:08:53.500Z,1.23
2022-12-23T18:11:27.821Z,1.58
2022-12-23T18:13:54.596Z,1.48
2022-12-23T18:16:21.154Z,2.30
2022-12-23T18:18:47.828Z,1.73
2022-12-23T18:21:22.410Z,2.13
2022-12-23T18:23:49.844Z,2.53
2022-12-23T18:26:16.417Z,1.55
2022-12-23T18:28:43.610Z,1.48
2022-12-23T18:31:23.921Z,1.83
2022-12-23T18:33:51.056Z,1.43
2022-12-23T18:36:30.390Z,0.93
2022-12-23T18:38:57.491Z,1.25
2022-12-23T18:41:25.435Z,2.30
2022-12-23T18:43:52.715Z,1.50
2022-12-23T18:46:20.418Z,1.83
2022-12-23T18:48:47.812Z,2.47
2022-12-23T18:51:19.409Z,2.30
2022-12-23T18:53:47.408Z,1.63
2022-12-23T18:56:15.799Z,1.23
2022-12-23T18:58:42.680Z,1.73
2022-12-23T19:01:13.938Z,1.52
2022-12-23T19:03:41.038Z,1.35
2022-12-23T19:06:09.513Z,2.00
2022-12-23T19:08:37.384Z,1.70
2022-12-23T19:11:16.006Z,1.67
2022-12-23T19:13:42.595Z,2.00
2022-12-23T19:16:13.551Z,1.85
2022-12-23T19:18:40.149Z,2.00
2022-12-23T19:21:06.717Z,2.13
2022-12-23T19:23:33.211Z,1.80
2022-12-23T19:25:59.736Z,1.83
2022-12-23T19:28:27.073Z,1.05
2022-12-23T19:30:53.609Z,2.25
2022-12-23T19:33:20.200Z,1.75
2022-12-23T19:35:46.769Z,2.20
2022-12-23T19:38:13.251Z,1.30
2022-12-23T19:40:40.607Z,1.77
2022-12-23T19:43:08.258Z,2.92
2022-12-23T19:45:34.785Z,2.78
2022-12-23T19:48:01.440Z,2.60
2022-12-23T19:50:28.177Z,2.38
2022-12-23T19:52:56.200Z,2.50
2022-12-23T19:55:23.161Z,2.47
2022-12-23T19:57:49.674Z,2.63
2022-12-23T20:00:16.339Z,2.00
2022-12-23T20:02:42.908Z,2.70
2022-12-23T20:05:10.201Z,2.50
2022-12-23T20:07:37.248Z,2.90
2022-12-23T20:10:05.424Z,2.92
2022-12-23T20:12:31.940Z,2.73
2022-12-23T20:14:58.455Z,3.45
2022-12-23T20:17:25.123Z,2.38
2022-12-23T20:19:51.854Z,2.33
2022-12-23T20:22:18.348Z,2.38
2022-12-23T20:24:45.119Z,2.33
2022-12-23T20:27:13.920Z,2.85
2022-12-23T20:29:42.391Z,2.60
2022-12-23T20:32:08.919Z,2.58
2022-12-23T20:34:39.597Z,4.22
2022-12-23T20:37:07.372Z,3.00
2022-12-23T20:39:34.555Z,1.85
2022-12-23T20:42:01.075Z,2.03
2022-12-23T20:44:36.607Z,2.78
2022-12-23T20:47:07.285Z,2.28
2022-12-23T20:49:33.837Z,1.97
2022-12-23T20:52:01.593Z,2.20
2022-12-23T20:54:33.216Z,2.72
2022-12-23T20:57:01.363Z,2.28
2022-12-23T20:59:28.004Z,1.95
2022-12-23T21:01:54.860Z,2.13
2022-12-23T21:04:22.464Z,1.63
2022-12-23T21:06:49.165Z,3.22
2022-12-23T21:09:16.021Z,2.97
2022-12-23T21:11:45.199Z,1.92
2022-12-23T21:14:12.628Z,2.57
2022-12-23T21:16:40.120Z,2.92
2022-12-23T21:19:16.532Z,2.35
2022-12-23T21:21:43.107Z,2.40
2022-12-23T21:24:10.151Z,2.53
2022-12-23T21:26:36.767Z,2.53
2022-12-23T21:29:06.203Z,2.38
2022-12-23T21:31:35.859Z,3.10
2022-12-23T21:34:02.512Z,1.95
2022-12-23T21:36:32.382Z,2.33
2022-12-23T21:38:59.635Z,1.47
2022-12-23T21:41:29.833Z,2.20
2022-12-23T21:43:57.767Z,2.55
2022-12-23T21:46:25.440Z,2.28
2022-12-23T21:48:52.089Z,3.10
2022-12-23T21:51:24.981Z,2.30
2022-12-23T21:53:53.640Z,1.50
2022-12-23T21:56:28.392Z,2.40
2022-12-23T21:58:59.303Z,2.28
2022-12-23T22:01:26.625Z,2.35
2022-12-23T22:03:54.155Z,2.73
2022-12-23T22:06:29.287Z,2.30
2022-12-23T22:08:57.830Z,1.80
2022-12-23T22:11:26.943Z,2.38
2022-12-23T22:13:55.041Z,1.90
2022-12-23T22:16:24.679Z,2.37
2022-12-23T22:18:52.142Z,2.13
2022-12-23T22:21:21.685Z,3.42
2022-12-23T22:23:49.466Z,2.90
2022-12-23T22:26:24.845Z,2.83
2022-12-23T22:28:56.238Z,3.03
2022-12-23T22:31:36.786Z,2.58
2022-12-23T22:34:04.333Z,2.50
2022-12-23T22:36:31.598Z,3.45
2022-12-23T22:39:00.015Z,2.95
2022-12-23T22:41:28.103Z,3.03
2022-12-23T22:43:55.278Z,2.38
2022-12-23T22:46:22.080Z,2.70
2022-12-23T22:48:49.104Z,3.25
2022-12-23T22:51:19.454Z,3.00
2022-12-23T22:53:46.907Z,3.27
2022-12-23T22:56:15.135Z,2.92
2022-12-23T22:58:42.481Z,2.63
2022-12-23T23:01:21.334Z,2.80
2022-12-23T23:03:51.029Z,3.10
2022-12-23T23:06:18.541Z,3.03
2022-12-23T23:08:45.066Z,3.13
2022-12-23T23:11:11.566Z,4.00
2022-12-23T23:13:38.091Z,4.00
2022-12-23T23:16:04.845Z,2.47
2022-12-23T23:18:31.482Z,2.30
2022-12-23T23:20:58.448Z,2.47
2022-12-23T23:23:25.048Z,2.78
2022-12-23T23:25:51.719Z,2.17
2022-12-23T23:28:18.466Z,2.53
2022-12-23T23:30:44.972Z,2.63
2022-12-23T23:33:12.003Z,2.60
2022-12-23T23:35:38.551Z,3.15
2022-12-23T23:38:05.111Z,2.67
2022-12-23T23:40:31.601Z,3.38
2022-12-23T23:42:58.103Z,3.07
2022-12-23T23:45:24.713Z,3.17
2022-12-23T23:47:51.258Z,3.90
2022-12-23T23:50:18.005Z,3.17
2022-12-23T23:52:44.554Z,2.90
2022-12-23T23:55:11.299Z,2.90
2022-12-23T23:57:38.144Z,3.15
